sensor_id;sensor_type;location;lat;lon;timestamp;P1;durP1;ratioP1;P2;durP2;ratioP2
23046;SDS011;11691;51.462;6.902;2023-04-20T00:01:53;5.80;;;2.70;;
23046;SDS011;11691;51.462;6.902;2023-04-20T00:04:20;3.83;;;2.33;;
23046;SDS011;11691;51.462;6.902;2023-04-20T00:06:46;5.20;;;2.70;;
23046;SDS011;11691;51.462;6.902;2023-04-20T00:09:13;3.97;;;2.57;;
23046;SDS011;11691;51.462;6.902;2023-04-20T00:11:40;4.97;;;2.40;;
23046;SDS011;11691;51.462;6.902;2023-04-20T00:14:05;6.83;;;2.43;;
23046;SDS011;11691;51.462;6.902;2023-04-20T00:16:31;3.80;;;2.50;;
23046;SDS011;11691;51.462;6.902;2023-04-20T00:18:58;5.23;;;2.57;;
23046;SDS011;11691;51.462;6.902;2023-04-20T00:21:24;4.20;;;2.30;;
23046;SDS011;11691;51.462;6.902;2023-04-20T00:23:50;5.50;;;2.30;;
23046;SDS011;11691;51.462;6.902;2023-04-20T00:26:16;3.50;;;2.33;;
23046;SDS011;11691;51.462;6.902;2023-04-20T00:28:42;3.40;;;2.30;;
23046;SDS011;11691;51.462;6.902;2023-04-20T00:31:08;4.60;;;2.47;;
23046;SDS011;11691;51.462;6.902;2023-04-20T00:33:34;3.80;;;2.40;;
23046;SDS011;11691;51.462;6.902;2023-04-20T00:36:00;3.70;;;2.10;;
23046;SDS011;11691;51.462;6.902;2023-04-20T00:38:26;4.73;;;2.77;;
23046;SDS011;11691;51.462;6.902;2023-04-20T00:40:55;6.17;;;2.40;;
23046;SDS011;11691;51.462;6.902;2023-04-20T00:43:21;8.30;;;2.60;;
23046;SDS011;11691;51.462;6.902;2023-04-20T00:45:48;8.47;;;3.00;;
23046;SDS011;11691;51.462;6.902;2023-04-20T00:48:16;5.67;;;2.20;;
23046;SDS011;11691;51.462;6.902;2023-04-20T00:50:42;7.60;;;2.47;;
23046;SDS011;11691;51.462;6.902;2023-04-20T00:53:08;4.47;;;2.13;;
23046;SDS011;11691;51.462;6.902;2023-04-20T00:55:35;5.37;;;2.70;;
23046;SDS011;11691;51.462;6.902;2023-04-20T00:58:01;4.80;;;2.10;;
23046;SDS011;11691;51.462;6.902;2023-04-20T01:00:27;5.70;;;2.33;;
23046;SDS011;11691;51.462;6.902;2023-04-20T01:02:53;7.13;;;2.40;;
23046;SDS011;11691;51.462;6.902;2023-04-20T01:05:20;5.47;;;2.43;;
23046;SDS011;11691;51.462;6.902;2023-04-20T01:07:46;3.17;;;2.10;;
23046;SDS011;11691;51.462;6.902;2023-04-20T01:10:12;5.30;;;2.60;;
23046;SDS011;11691;51.462;6.902;2023-04-20T01:12:38;6.53;;;2.53;;
23046;SDS011;11691;51.462;6.902;2023-04-20T01:15:05;5.60;;;2.50;;
23046;SDS011;11691;51.462;6.902;2023-04-20T01:17:31;6.40;;;2.73;;
23046;SDS011;11691;51.462;6.902;2023-04-20T01:19:58;4.30;;;2.60;;
23046;SDS011;11691;51.462;6.902;2023-04-20T01:22:24;5.20;;;2.27;;
23046;SDS011;11691;51.462;6.902;2023-04-20T01:24:50;3.60;;;2.27;;
23046;SDS011;11691;51.462;6.902;2023-04-20T01:27:16;7.73;;;2.33;;
23046;SDS011;11691;51.462;6.902;2023-04-20T01:29:43;2.73;;;2.27;;
23046;SDS011;11691;51.462;6.902;2023-04-20T01:32:10;4.87;;;2.53;;
23046;SDS011;11691;51.462;6.902;2023-04-20T01:34:36;3.40;;;2.30;;
23046;SDS011;11691;51.462;6.902;2023-04-20T01:37:02;5.53;;;2.30;;
23046;SDS011;11691;51.462;6.902;2023-04-20T01:39:33;3.90;;;2.30;;
23046;SDS011;11691;51.462;6.902;2023-04-20T01:41:59;4.97;;;2.70;;
23046;SDS011;11691;51.462;6.902;2023-04-20T01:44:25;4.40;;;2.30;;
23046;SDS011;11691;51.462;6.902;2023-04-20T01:46:51;4.67;;;2.37;;
23046;SDS011;11691;51.462;6.902;2023-04-20T01:49:17;3.40;;;2.40;;
23046;SDS011;11691;51.462;6.902;2023-04-20T01:51:43;3.73;;;2.17;;
23046;SDS011;11691;51.462;6.902;2023-04-20T01:54:09;4.17;;;2.30;;
23046;SDS011;11691;51.462;6.902;2023-04-20T01:56:35;4.97;;;2.80;;
23046;SDS011;11691;51.462;6.902;2023-04-20T01:59:01;4.30;;;2.27;;
23046;SDS011;11691;51.462;6.902;2023-04-20T02:01:27;4.20;;;2.20;;
23046;SDS011;11691;51.462;6.902;2023-04-20T02:03:55;3.83;;;2.13;;
23046;SDS011;11691;51.462;6.902;2023-04-20T02:06:21;4.40;;;2.40;;
23046;SDS011;11691;51.462;6.902;2023-04-20T02:08:47;3.67;;;2.30;;
23046;SDS011;11691;51.462;6.902;2023-04-20T02:11:13;4.17;;;2.27;;
23046;SDS011;11691;51.462;6.902;2023-04-20T02:13:38;4.97;;;2.17;;
23046;SDS011;11691;51.462;6.902;2023-04-20T02:16:04;4.37;;;2.23;;
23046;SDS011;11691;51.462;6.902;2023-04-20T02:18:31;6.33;;;2.23;;
23046;SDS011;11691;51.462;6.902;2023-04-20T02:20:57;5.03;;;2.43;;
23046;SDS011;11691;51.462;6.902;2023-04-20T02:23:23;5.83;;;2.23;;
23046;SDS011;11691;51.462;6.902;2023-04-20T02:25:49;5.00;;;2.37;;
23046;SDS011;11691;51.462;6.902;2023-04-20T02:28:15;5.27;;;2.60;;
23046;SDS011;11691;51.462;6.902;2023-04-20T02:30:40;3.80;;;2.20;;
23046;SDS011;11691;51.462;6.902;2023-04-20T02:33:07;4.60;;;2.13;;
23046;SDS011;11691;51.462;6.902;2023-04-20T02:35:33;4.80;;;2.30;;
23046;SDS011;11691;51.462;6.902;2023-04-20T02:37:59;4.37;;;2.23;;
23046;SDS011;11691;51.462;6.902;2023-04-20T02:40:25;6.40;;;2.30;;
23046;SDS011;11691;51.462;6.902;2023-04-20T02:42:51;2.83;;;1.87;;
23046;SDS011;11691;51.462;6.902;2023-04-20T02:45:17;3.50;;;2.20;;
23046;SDS011;11691;51.462;6.902;2023-04-20T02:47:43;5.53;;;2.33;;
23046;SDS011;11691;51.462;6.902;2023-04-20T02:50:09;7.87;;;2.30;;
23046;SDS011;11691;51.462;6.902;2023-04-20T02:52:35;5.53;;;2.27;;
23046;SDS011;11691;51.462;6.902;2023-04-20T02:55:01;4.00;;;1.70;;
23046;SDS011;11691;51.462;6.902;2023-04-20T02:57:27;3.73;;;1.90;;
23046;SDS011;11691;51.462;6.902;2023-04-20T02:59:53;3.63;;;2.27;;
23046;SDS011;11691;51.462;6.902;2023-04-20T03:02:20;3.43;;;2.20;;
23046;SDS011;11691;51.462;6.902;2023-04-20T03:04:46;5.00;;;2.40;;
23046;SDS011;11691;51.462;6.902;2023-04-20T03:07:11;6.17;;;2.10;;
23046;SDS011;11691;51.462;6.902;2023-04-20T03:09:37;6.97;;;2.60;;
23046;SDS011;11691;51.462;6.902;2023-04-20T03:12:03;3.93;;;2.00;;
23046;SDS011;11691;51.462;6.902;2023-04-20T03:14:30;4.40;;;2.43;;
23046;SDS011;11691;51.462;6.902;2023-04-20T03:16:56;4.67;;;2.53;;
23046;SDS011;11691;51.462;6.902;2023-04-20T03:19:22;3.90;;;2.53;;
23046;SDS011;11691;51.462;6.902;2023-04-20T03:21:48;8.17;;;2.67;;
23046;SDS011;11691;51.462;6.902;2023-04-20T03:24:15;4.57;;;2.90;;
23046;SDS011;11691;51.462;6.902;2023-04-20T03:26:41;3.93;;;2.53;;
23046;SDS011;11691;51.462;6.902;2023-04-20T03:29:06;5.00;;;2.60;;
23046;SDS011;11691;51.462;6.902;2023-04-20T03:31:32;5.43;;;2.70;;
23046;SDS011;11691;51.462;6.902;2023-04-20T03:33:59;4.83;;;2.50;;
23046;SDS011;11691;51.462;6.902;2023-04-20T03:36:25;4.63;;;2.20;;
23046;SDS011;11691;51.462;6.902;2023-04-20T03:38:52;5.57;;;2.97;;
23046;SDS011;11691;51.462;6.902;2023-04-20T03:41:18;5.27;;;2.60;;
23046;SDS011;11691;51.462;6.902;2023-04-20T03:43:44;8.27;;;2.87;;
23046;SDS011;11691;51.462;6.902;2023-04-20T03:46:10;5.90;;;2.70;;
23046;SDS011;11691;51.462;6.902;2023-04-20T03:48:36;4.97;;;2.77;;
23046;SDS011;11691;51.462;6.902;2023-04-20T03:51:02;5.23;;;2.73;;
23046;SDS011;11691;51.462;6.902;2023-04-20T03:53:28;5.53;;;2.60;;
23046;SDS011;11691;51.462;6.902;2023-04-20T03:55:54;5.17;;;2.57;;
23046;SDS011;11691;51.462;6.902;2023-04-20T03:58:20;4.73;;;2.60;;
23046;SDS011;11691;51.462;6.902;2023-04-20T04:00:46;5.70;;;2.70;;
23046;SDS011;11691;51.462;6.902;2023-04-20T04:03:12;4.27;;;2.47;;
23046;SDS011;11691;51.462;6.902;2023-04-20T04:05:41;6.43;;;2.57;;
23046;SDS011;11691;51.462;6.902;2023-04-20T04:08:07;4.90;;;2.47;;
23046;SDS011;11691;51.462;6.902;2023-04-20T04:10:33;6.13;;;2.83;;
23046;SDS011;11691;51.462;6.902;2023-04-20T04:12:59;4.40;;;2.97;;
23046;SDS011;11691;51.462;6.902;2023-04-20T04:15:25;4.33;;;3.00;;
23046;SDS011;11691;51.462;6.902;2023-04-20T04:17:52;4.63;;;3.07;;
23046;SDS011;11691;51.462;6.902;2023-04-20T04:20:19;9.37;;;3.60;;
23046;SDS011;11691;51.462;6.902;2023-04-20T04:22:45;7.50;;;3.37;;
23046;SDS011;11691;51.462;6.902;2023-04-20T04:25:11;7.20;;;2.83;;
23046;SDS011;11691;51.462;6.902;2023-04-20T04:27:37;5.30;;;3.20;;
23046;SDS011;11691;51.462;6.902;2023-04-20T04:30:04;5.97;;;3.40;;
23046;SDS011;11691;51.462;6.902;2023-04-20T04:32:30;7.20;;;3.33;;
23046;SDS011;11691;51.462;6.902;2023-04-20T04:34:58;6.27;;;4.00;;
23046;SDS011;11691;51.462;6.902;2023-04-20T04:37:25;5.10;;;3.40;;
23046;SDS011;11691;51.462;6.902;2023-04-20T04:39:52;7.67;;;2.93;;
23046;SDS011;11691;51.462;6.902;2023-04-20T04:42:18;5.83;;;3.27;;
23046;SDS011;11691;51.462;6.902;2023-04-20T04:44:44;6.73;;;3.23;;
23046;SDS011;11691;51.462;6.902;2023-04-20T04:47:10;7.83;;;3.40;;
23046;SDS011;11691;51.462;6.902;2023-04-20T04:49:36;8.87;;;3.57;;
23046;SDS011;11691;51.462;6.902;2023-04-20T04:52:04;6.80;;;3.33;;
23046;SDS011;11691;51.462;6.902;2023-04-20T04:54:30;6.40;;;3.93;;
23046;SDS011;11691;51.462;6.902;2023-04-20T04:56:56;5.73;;;3.43;;
23046;SDS011;11691;51.462;6.902;2023-04-20T04:59:22;5.67;;;3.50;;
23046;SDS011;11691;51.462;6.902;2023-04-20T05:01:48;4.77;;;3.27;;
23046;SDS011;11691;51.462;6.902;2023-04-20T05:04:14;6.93;;;3.73;;
23046;SDS011;11691;51.462;6.902;2023-04-20T05:06:40;4.97;;;3.07;;
23046;SDS011;11691;51.462;6.902;2023-04-20T05:09:06;6.30;;;3.40;;
23046;SDS011;11691;51.462;6.902;2023-04-20T05:11:32;5.47;;;3.40;;
23046;SDS011;11691;51.462;6.902;2023-04-20T05:13:58;4.70;;;3.20;;
23046;SDS011;11691;51.462;6.902;2023-04-20T05:16:26;4.87;;;3.40;;
23046;SDS011;11691;51.462;6.902;2023-04-20T05:18:52;5.73;;;3.43;;
23046;SDS011;11691;51.462;6.902;2023-04-20T05:21:18;5.80;;;2.93;;
23046;SDS011;11691;51.462;6.902;2023-04-20T05:23:44;4.07;;;3.40;;
23046;SDS011;11691;51.462;6.902;2023-04-20T05:26:10;7.70;;;4.03;;
23046;SDS011;11691;51.462;6.902;2023-04-20T05:28:36;5.60;;;3.60;;
23046;SDS011;11691;51.462;6.902;2023-04-20T05:31:02;5.40;;;3.17;;
23046;SDS011;11691;51.462;6.902;2023-04-20T05:33:28;10.30;;;3.63;;
23046;SDS011;11691;51.462;6.902;2023-04-20T05:35:56;4.73;;;3.40;;
23046;SDS011;11691;51.462;6.902;2023-04-20T05:38:22;5.80;;;3.87;;
23046;SDS011;11691;51.462;6.902;2023-04-20T05:40:49;8.17;;;3.60;;
23046;SDS011;11691;51.462;6.902;2023-04-20T05:43:15;6.10;;;3.60;;
23046;SDS011;11691;51.462;6.902;2023-04-20T05:45:43;4.80;;;3.30;;
23046;SDS011;11691;51.462;6.902;2023-04-20T05:48:09;5.37;;;3.40;;
23046;SDS011;11691;51.462;6.902;2023-04-20T05:50:35;8.53;;;3.97;;
23046;SDS011;11691;51.462;6.902;2023-04-20T05:53:01;6.67;;;3.40;;
23046;SDS011;11691;51.462;6.902;2023-04-20T05:55:27;8.17;;;3.53;;
23046;SDS011;11691;51.462;6.902;2023-04-20T05:57:53;7.77;;;3.83;;
23046;SDS011;11691;51.462;6.902;2023-04-20T06:00:18;5.13;;;3.47;;
23046;SDS011;11691;51.462;6.902;2023-04-20T06:02:45;5.40;;;3.63;;
23046;SDS011;11691;51.462;6.902;2023-04-20T06:05:11;6.37;;;3.67;;
23046;SDS011;11691;51.462;6.902;2023-04-20T06:07:37;6.90;;;3.60;;
23046;SDS011;11691;51.462;6.902;2023-04-20T06:10:03;6.27;;;3.70;;
23046;SDS011;11691;51.462;6.902;2023-04-20T06:12:30;5.63;;;3.63;;
23046;SDS011;11691;51.462;6.902;2023-04-20T06:14:56;5.47;;;3.37;;
23046;SDS011;11691;51.462;6.902;2023-04-20T06:17:22;5.00;;;3.53;;
23046;SDS011;11691;51.462;6.902;2023-04-20T06:19:48;6.47;;;3.53;;
23046;SDS011;11691;51.462;6.902;2023-04-20T06:22:14;5.73;;;4.20;;
23046;SDS011;11691;51.462;6.902;2023-04-20T06:24:41;5.40;;;4.20;;
23046;SDS011;11691;51.462;6.902;2023-04-20T06:27:11;8.57;;;4.07;;
23046;SDS011;11691;51.462;6.902;2023-04-20T06:29:37;8.47;;;3.97;;
23046;SDS011;11691;51.462;6.902;2023-04-20T06:32:03;6.63;;;3.80;;
23046;SDS011;11691;51.462;6.902;2023-04-20T06:34:29;6.40;;;4.03;;
23046;SDS011;11691;51.462;6.902;2023-04-20T06:36:55;8.53;;;5.10;;
23046;SDS011;11691;51.462;6.902;2023-04-20T06:39:21;5.17;;;3.70;;
23046;SDS011;11691;51.462;6.902;2023-04-20T06:41:47;7.40;;;4.13;;
23046;SDS011;11691;51.462;6.902;2023-04-20T06:44:13;7.23;;;4.40;;
23046;SDS011;11691;51.462;6.902;2023-04-20T06:46:39;5.47;;;3.70;;
23046;SDS011;11691;51.462;6.902;2023-04-20T06:49:05;6.73;;;4.00;;
23046;SDS011;11691;51.462;6.902;2023-04-20T06:51:31;7.23;;;4.50;;
23046;SDS011;11691;51.462;6.902;2023-04-20T06:53:57;7.93;;;4.77;;
23046;SDS011;11691;51.462;6.902;2023-04-20T06:56:23;13.33;;;4.80;;
23046;SDS011;11691;51.462;6.902;2023-04-20T06:58:49;5.97;;;4.50;;
23046;SDS011;11691;51.462;6.902;2023-04-20T07:01:15;7.90;;;4.80;;
23046;SDS011;11691;51.462;6.902;2023-04-20T07:03:41;6.80;;;4.77;;
23046;SDS011;11691;51.462;6.902;2023-04-20T07:06:07;7.23;;;4.30;;
23046;SDS011;11691;51.462;6.902;2023-04-20T07:08:35;6.80;;;4.20;;
23046;SDS011;11691;51.462;6.902;2023-04-20T07:11:01;6.40;;;4.13;;
23046;SDS011;11691;51.462;6.902;2023-04-20T07:13:29;6.60;;;4.33;;
23046;SDS011;11691;51.462;6.902;2023-04-20T07:15:55;8.90;;;4.50;;
23046;SDS011;11691;51.462;6.902;2023-04-20T07:18:21;5.70;;;4.23;;
23046;SDS011;11691;51.462;6.902;2023-04-20T07:20:47;6.37;;;4.63;;
23046;SDS011;11691;51.462;6.902;2023-04-20T07:23:14;9.33;;;5.00;;
23046;SDS011;11691;51.462;6.902;2023-04-20T07:25:40;6.70;;;4.80;;
23046;SDS011;11691;51.462;6.902;2023-04-20T07:28:06;8.73;;;5.17;;
23046;SDS011;11691;51.462;6.902;2023-04-20T07:30:32;7.53;;;4.50;;
23046;SDS011;11691;51.462;6.902;2023-04-20T07:32:58;6.00;;;4.53;;
23046;SDS011;11691;51.462;6.902;2023-04-20T07:35:24;10.20;;;5.17;;
23046;SDS011;11691;51.462;6.902;2023-04-20T07:37:50;7.03;;;4.80;;
23046;SDS011;11691;51.462;6.902;2023-04-20T07:40:16;7.60;;;4.87;;
23046;SDS011;11691;51.462;6.902;2023-04-20T07:42:42;5.83;;;4.57;;
23046;SDS011;11691;51.462;6.902;2023-04-20T07:45:08;7.87;;;4.73;;
23046;SDS011;11691;51.462;6.902;2023-04-20T07:47:35;8.73;;;4.73;;
23046;SDS011;11691;51.462;6.902;2023-04-20T07:50:02;7.13;;;4.53;;
23046;SDS011;11691;51.462;6.902;2023-04-20T07:52:28;9.47;;;4.73;;
23046;SDS011;11691;51.462;6.902;2023-04-20T07:54:54;5.80;;;4.50;;
23046;SDS011;11691;51.462;6.902;2023-04-20T07:57:24;7.37;;;4.70;;
23046;SDS011;11691;51.462;6.902;2023-04-20T07:59:51;6.90;;;4.33;;
23046;SDS011;11691;51.462;6.902;2023-04-20T08:02:17;6.97;;;4.60;;
23046;SDS011;11691;51.462;6.902;2023-04-20T08:04:43;6.07;;;4.87;;
23046;SDS011;11691;51.462;6.902;2023-04-20T08:07:10;7.90;;;4.53;;
23046;SDS011;11691;51.462;6.902;2023-04-20T08:09:36;8.13;;;4.33;;
23046;SDS011;11691;51.462;6.902;2023-04-20T08:12:03;6.40;;;4.80;;
23046;SDS011;11691;51.462;6.902;2023-04-20T08:14:29;5.77;;;4.17;;
23046;SDS011;11691;51.462;6.902;2023-04-20T08:16:55;7.13;;;4.20;;
23046;SDS011;11691;51.462;6.902;2023-04-20T08:19:21;6.10;;;4.30;;
23046;SDS011;11691;51.462;6.902;2023-04-20T08:21:47;6.00;;;4.17;;
23046;SDS011;11691;51.462;6.902;2023-04-20T08:24:13;5.73;;;4.00;;
23046;SDS011;11691;51.462;6.902;2023-04-20T08:26:39;5.87;;;4.20;;
23046;SDS011;11691;51.462;6.902;2023-04-20T08:29:05;6.77;;;4.40;;
23046;SDS011;11691;51.462;6.902;2023-04-20T08:31:31;5.63;;;4.07;;
23046;SDS011;11691;51.462;6.902;2023-04-20T08:33:57;8.50;;;4.40;;
23046;SDS011;11691;51.462;6.902;2023-04-20T08:36:23;7.47;;;4.20;;
23046;SDS011;11691;51.462;6.902;2023-04-20T08:39:13;6.63;;;4.90;;
23046;SDS011;11691;51.462;6.902;2023-04-20T08:41:38;8.33;;;4.23;;
23046;SDS011;11691;51.462;6.902;2023-04-20T08:44:03;7.53;;;4.50;;
23046;SDS011;11691;51.462;6.902;2023-04-20T08:46:29;8.47;;;4.60;;
23046;SDS011;11691;51.462;6.902;2023-04-20T08:48:56;7.80;;;5.03;;
23046;SDS011;11691;51.462;6.902;2023-04-20T08:51:22;6.63;;;4.83;;
23046;SDS011;11691;51.462;6.902;2023-04-20T08:53:48;7.00;;;4.73;;
23046;SDS011;11691;51.462;6.902;2023-04-20T08:56:14;8.13;;;5.40;;
23046;SDS011;11691;51.462;6.902;2023-04-20T08:58:40;6.63;;;4.50;;
23046;SDS011;11691;51.462;6.902;2023-04-20T09:01:09;10.67;;;5.13;;
23046;SDS011;11691;51.462;6.902;2023-04-20T09:03:36;9.57;;;5.17;;
23046;SDS011;11691;51.462;6.902;2023-04-20T09:06:05;11.17;;;5.73;;
23046;SDS011;11691;51.462;6.902;2023-04-20T09:08:39;7.53;;;5.27;;
23046;SDS011;11691;51.462;6.902;2023-04-20T09:11:06;9.30;;;4.90;;
23046;SDS011;11691;51.462;6.902;2023-04-20T09:13:32;9.93;;;5.00;;
23046;SDS011;11691;51.462;6.902;2023-04-20T09:16:10;8.87;;;5.33;;
23046;SDS011;11691;51.462;6.902;2023-04-20T09:18:37;8.50;;;5.27;;
23046;SDS011;11691;51.462;6.902;2023-04-20T09:21:07;11.70;;;5.93;;
23046;SDS011;11691;51.462;6.902;2023-04-20T09:23:33;10.20;;;6.40;;
23046;SDS011;11691;51.462;6.902;2023-04-20T09:25:59;9.00;;;6.17;;
23046;SDS011;11691;51.462;6.902;2023-04-20T09:28:34;10.57;;;6.40;;
23046;SDS011;11691;51.462;6.902;2023-04-20T09:31:03;12.10;;;6.90;;
23046;SDS011;11691;51.462;6.902;2023-04-20T09:33:29;11.00;;;7.43;;
23046;SDS011;11691;51.462;6.902;2023-04-20T09:36:01;9.70;;;7.40;;
23046;SDS011;11691;51.462;6.902;2023-04-20T09:38:28;10.57;;;7.20;;
23046;SDS011;11691;51.462;6.902;2023-04-20T09:40:55;9.90;;;7.47;;
23046;SDS011;11691;51.462;6.902;2023-04-20T09:43:25;12.53;;;8.27;;
23046;SDS011;11691;51.462;6.902;2023-04-20T09:45:52;9.90;;;7.05;;
23046;SDS011;11691;51.462;6.902;2023-04-20T09:48:20;10.38;;;7.05;;
23046;SDS011;11691;51.462;6.902;2023-04-20T09:50:46;11.85;;;6.95;;
23046;SDS011;11691;51.462;6.902;2023-04-20T09:53:15;12.85;;;7.65;;
23046;SDS011;11691;51.462;6.902;2023-04-20T09:55:45;9.40;;;7.47;;
23046;SDS011;11691;51.462;6.902;2023-04-20T09:58:11;11.77;;;7.90;;
23046;SDS011;11691;51.462;6.902;2023-04-20T10:00:38;11.02;;;7.57;;
23046;SDS011;11691;51.462;6.902;2023-04-20T10:03:04;9.57;;;7.53;;
23046;SDS011;11691;51.462;6.902;2023-04-20T10:05:33;10.52;;;7.75;;
23046;SDS011;11691;51.462;6.902;2023-04-20T10:08:00;12.95;;;7.25;;
23046;SDS011;11691;51.462;6.902;2023-04-20T10:10:26;10.52;;;7.30;;
23046;SDS011;11691;51.462;6.902;2023-04-20T10:12:53;10.00;;;6.93;;
23046;SDS011;11691;51.462;6.902;2023-04-20T10:15:21;9.20;;;6.03;;
23046;SDS011;11691;51.462;6.902;2023-04-20T10:17:48;9.13;;;5.25;;
23046;SDS011;11691;51.462;6.902;2023-04-20T10:20:24;6.55;;;5.15;;
23046;SDS011;11691;51.462;6.902;2023-04-20T10:22:51;6.00;;;5.22;;
23046;SDS011;11691;51.462;6.902;2023-04-20T10:25:19;7.18;;;5.35;;
23046;SDS011;11691;51.462;6.902;2023-04-20T10:27:54;6.28;;;4.93;;
23046;SDS011;11691;51.462;6.902;2023-04-20T10:30:20;5.65;;;4.90;;
23046;SDS011;11691;51.462;6.902;2023-04-20T10:32:47;5.90;;;4.30;;
23046;SDS011;11691;51.462;6.902;2023-04-20T10:35:13;5.05;;;4.25;;
23046;SDS011;11691;51.462;6.902;2023-04-20T10:37:49;4.90;;;4.35;;
23046;SDS011;11691;51.462;6.902;2023-04-20T10:40:16;5.05;;;4.28;;
23046;SDS011;11691;51.462;6.902;2023-04-20T10:42:42;6.32;;;3.75;;
23046;SDS011;11691;51.462;6.902;2023-04-20T10:45:09;3.70;;;3.40;;
23046;SDS011;11691;51.462;6.902;2023-04-20T10:47:35;4.05;;;3.38;;
23046;SDS011;11691;51.462;6.902;2023-04-20T10:52:37;4.97;;;3.50;;
23046;SDS011;11691;51.462;6.902;2023-04-20T10:55:04;3.90;;;3.50;;
23046;SDS011;11691;51.462;6.902;2023-04-20T10:57:31;4.88;;;3.30;;
23046;SDS011;11691;51.462;6.902;2023-04-20T10:59:57;3.72;;;3.42;;
23046;SDS011;11691;51.462;6.902;2023-04-20T11:02:23;3.33;;;2.75;;
23046;SDS011;11691;51.462;6.902;2023-04-20T11:04:50;3.55;;;3.25;;
23046;SDS011;11691;51.462;6.902;2023-04-20T11:07:17;3.70;;;3.38;;
23046;SDS011;11691;51.462;6.902;2023-04-20T11:09:44;4.03;;;3.53;;
23046;SDS011;11691;51.462;6.902;2023-04-20T11:12:19;4.53;;;3.00;;
23046;SDS011;11691;51.462;6.902;2023-04-20T11:14:52;3.83;;;2.80;;
23046;SDS011;11691;51.462;6.902;2023-04-20T11:17:19;4.30;;;3.05;;
23046;SDS011;11691;51.462;6.902;2023-04-20T11:19:45;3.35;;;3.05;;
23046;SDS011;11691;51.462;6.902;2023-04-20T11:22:19;4.25;;;3.60;;
23046;SDS011;11691;51.462;6.902;2023-04-20T11:24:49;3.35;;;2.90;;
23046;SDS011;11691;51.462;6.902;2023-04-20T11:27:18;5.30;;;3.75;;
23046;SDS011;11691;51.462;6.902;2023-04-20T11:29:54;4.30;;;3.80;;
23046;SDS011;11691;51.462;6.902;2023-04-20T11:32:22;4.82;;;3.70;;
23046;SDS011;11691;51.462;6.902;2023-04-20T11:34:48;3.78;;;3.38;;
23046;SDS011;11691;51.462;6.902;2023-04-20T11:37:22;4.53;;;3.60;;
23046;SDS011;11691;51.462;6.902;2023-04-20T11:39:57;4.53;;;3.80;;
23046;SDS011;11691;51.462;6.902;2023-04-20T11:42:23;3.90;;;3.50;;
23046;SDS011;11691;51.462;6.902;2023-04-20T11:44:49;6.80;;;3.40;;
23046;SDS011;11691;51.462;6.902;2023-04-20T11:47:15;3.72;;;3.33;;
23046;SDS011;11691;51.462;6.902;2023-04-20T11:49:41;3.70;;;3.30;;
23046;SDS011;11691;51.462;6.902;2023-04-20T11:52:07;4.63;;;3.60;;
23046;SDS011;11691;51.462;6.902;2023-04-20T11:54:33;3.75;;;3.35;;
23046;SDS011;11691;51.462;6.902;2023-04-20T11:57:00;3.13;;;2.70;;
23046;SDS011;11691;51.462;6.902;2023-04-20T11:59:26;3.60;;;2.85;;
23046;SDS011;11691;51.462;6.902;2023-04-20T12:01:52;3.00;;;2.63;;
23046;SDS011;11691;51.462;6.902;2023-04-20T12:04:18;3.00;;;2.38;;
23046;SDS011;11691;51.462;6.902;2023-04-20T12:06:44;3.22;;;2.72;;
23046;SDS011;11691;51.462;6.902;2023-04-20T12:09:10;2.97;;;2.67;;
23046;SDS011;11691;51.462;6.902;2023-04-20T12:11:37;2.97;;;2.28;;
23046;SDS011;11691;51.462;6.902;2023-04-20T12:14:03;2.70;;;2.33;;
23046;SDS011;11691;51.462;6.902;2023-04-20T12:16:29;2.85;;;2.53;;
23046;SDS011;11691;51.462;6.902;2023-04-20T12:18:55;3.00;;;2.65;;
23046;SDS011;11691;51.462;6.902;2023-04-20T12:21:21;2.88;;;2.58;;
23046;SDS011;11691;51.462;6.902;2023-04-20T12:23:47;2.67;;;2.45;;
23046;SDS011;11691;51.462;6.902;2023-04-20T12:26:15;3.45;;;2.70;;
23046;SDS011;11691;51.462;6.902;2023-04-20T12:28:41;4.93;;;3.00;;
23046;SDS011;11691;51.462;6.902;2023-04-20T12:31:09;5.72;;;3.08;;
23046;SDS011;11691;51.462;6.902;2023-04-20T12:33:35;4.75;;;2.88;;
23046;SDS011;11691;51.462;6.902;2023-04-20T12:36:01;4.07;;;3.28;;
23046;SDS011;11691;51.462;6.902;2023-04-20T12:38:27;4.40;;;3.17;;
23046;SDS011;11691;51.462;6.902;2023-04-20T12:40:53;4.00;;;3.40;;
23046;SDS011;11691;51.462;6.902;2023-04-20T12:43:19;4.80;;;3.70;;
23046;SDS011;11691;51.462;6.902;2023-04-20T12:45:45;4.53;;;3.28;;
23046;SDS011;11691;51.462;6.902;2023-04-20T12:48:12;4.50;;;3.53;;
23046;SDS011;11691;51.462;6.902;2023-04-20T12:50:38;4.78;;;3.50;;
23046;SDS011;11691;51.462;6.902;2023-04-20T12:53:04;3.83;;;3.15;;
23046;SDS011;11691;51.462;6.902;2023-04-20T12:55:30;3.97;;;3.55;;
23046;SDS011;11691;51.462;6.902;2023-04-20T12:57:56;5.72;;;3.83;;
23046;SDS011;11691;51.462;6.902;2023-04-20T13:00:22;5.85;;;3.75;;
23046;SDS011;11691;51.462;6.902;2023-04-20T13:02:48;6.07;;;4.18;;
23046;SDS011;11691;51.462;6.902;2023-04-20T13:05:14;4.93;;;4.07;;
23046;SDS011;11691;51.462;6.902;2023-04-20T13:07:40;4.97;;;3.67;;
23046;SDS011;11691;51.462;6.902;2023-04-20T13:10:06;4.95;;;3.75;;
23046;SDS011;11691;51.462;6.902;2023-04-20T13:12:32;4.00;;;3.50;;
23046;SDS011;11691;51.462;6.902;2023-04-20T13:14:58;5.70;;;4.30;;
23046;SDS011;11691;51.462;6.902;2023-04-20T13:17:24;4.57;;;3.85;;
23046;SDS011;11691;51.462;6.902;2023-04-20T13:19:50;4.93;;;3.65;;
23046;SDS011;11691;51.462;6.902;2023-04-20T13:22:16;5.55;;;3.80;;
23046;SDS011;11691;51.462;6.902;2023-04-20T13:24:42;5.28;;;3.88;;
23046;SDS011;11691;51.462;6.902;2023-04-20T13:27:08;4.60;;;3.70;;
23046;SDS011;11691;51.462;6.902;2023-04-20T13:29:34;5.05;;;3.97;;
23046;SDS011;11691;51.462;6.902;2023-04-20T13:32:00;5.53;;;4.35;;
23046;SDS011;11691;51.462;6.902;2023-04-20T13:34:26;6.47;;;4.05;;
23046;SDS011;11691;51.462;6.902;2023-04-20T13:36:52;7.93;;;4.47;;
23046;SDS011;11691;51.462;6.902;2023-04-20T13:39:18;5.45;;;4.13;;
23046;SDS011;11691;51.462;6.902;2023-04-20T13:41:46;7.30;;;4.57;;
23046;SDS011;11691;51.462;6.902;2023-04-20T13:44:13;5.95;;;4.30;;
23046;SDS011;11691;51.462;6.902;2023-04-20T13:46:43;6.78;;;4.55;;
23046;SDS011;11691;51.462;6.902;2023-04-20T13:49:10;6.22;;;4.65;;
23046;SDS011;11691;51.462;6.902;2023-04-20T13:51:36;7.43;;;4.47;;
23046;SDS011;11691;51.462;6.902;2023-04-20T13:54:02;5.13;;;4.22;;
23046;SDS011;11691;51.462;6.902;2023-04-20T13:56:28;7.30;;;4.60;;
23046;SDS011;11691;51.462;6.902;2023-04-20T13:58:54;5.90;;;4.47;;
23046;SDS011;11691;51.462;6.902;2023-04-20T14:01:20;6.40;;;4.70;;
23046;SDS011;11691;51.462;6.902;2023-04-20T14:03:46;5.72;;;4.20;;
23046;SDS011;11691;51.462;6.902;2023-04-20T14:06:12;6.47;;;4.75;;
23046;SDS011;11691;51.462;6.902;2023-04-20T14:08:38;6.25;;;4.70;;
23046;SDS011;11691;51.462;6.902;2023-04-20T14:11:04;7.35;;;5.28;;
23046;SDS011;11691;51.462;6.902;2023-04-20T14:13:31;7.22;;;5.40;;
23046;SDS011;11691;51.462;6.902;2023-04-20T14:15:57;6.05;;;4.88;;
23046;SDS011;11691;51.462;6.902;2023-04-20T14:18:23;6.85;;;5.15;;
23046;SDS011;11691;51.462;6.902;2023-04-20T14:20:49;8.45;;;5.10;;
23046;SDS011;11691;51.462;6.902;2023-04-20T14:23:16;6.30;;;5.32;;
23046;SDS011;11691;51.462;6.902;2023-04-20T14:25:43;7.40;;;5.43;;
23046;SDS011;11691;51.462;6.902;2023-04-20T14:28:09;9.82;;;5.88;;
23046;SDS011;11691;51.462;6.902;2023-04-20T14:30:35;7.43;;;5.03;;
23046;SDS011;11691;51.462;6.902;2023-04-20T14:33:01;9.18;;;5.78;;
23046;SDS011;11691;51.462;6.902;2023-04-20T14:35:28;6.53;;;5.40;;
23046;SDS011;11691;51.462;6.902;2023-04-20T14:37:54;9.73;;;5.07;;
23046;SDS011;11691;51.462;6.902;2023-04-20T14:40:20;7.20;;;5.43;;
23046;SDS011;11691;51.462;6.902;2023-04-20T14:42:46;5.55;;;4.97;;
23046;SDS011;11691;51.462;6.902;2023-04-20T14:45:12;6.85;;;5.63;;
23046;SDS011;11691;51.462;6.902;2023-04-20T14:47:38;8.15;;;4.82;;